CheckWX is a tool to help pilots better visualize weather data.  It is not intended as a substitute for an official pre-flight weather briefing.

09:55:58 UTC

EVLA METAR
Liepāja International Airport
Liepāja, Latvia
Current

36 mins ago

EVLA 200920Z AUTO 31010KT 280V340 9999 BKN019/// 05/02 Q1005
Observed
Feb-20 @ 09:20 UTC
Wind
  • 310° at 10 KTS
Visibility
10,000+ meters
Flight Rules
MVFR
Cloud Levels
  • Broken at 1,900' AGL
Temperature
C / 41°F
Dewpoint
C / 36°F
Humidity
81%
Altimeter
29.68" Hg
Pressure
1004.92 hPa
Previous

1 hour ago

EVLA 200850Z AUTO 30010KT 260V330 9999 FEW017/// BKN020/// 05/02 Q1004
Observed
Feb-20 @ 08:50 UTC
Wind
  • 300° at 10 KTS
Visibility
10,000+ meters
Flight Rules
MVFR
Cloud Levels
  • Few at 1,700' AGL
  • Broken at 2,000' AGL
Temperature
C / 41°F
Dewpoint
C / 36°F
Humidity
81%
Altimeter
29.65" Hg
Pressure
1003.92 hPa
Previous

2 hours ago

EVLA 200820Z AUTO 29010G20KT 9999 BKN021/// 04/02 Q1003
Observed
Feb-20 @ 08:20 UTC
Wind
  • 290° at 10 KTS
  • Gusting to 20 KTS
Visibility
10,000+ meters
Flight Rules
MVFR
Cloud Levels
  • Broken at 2,100' AGL
Temperature
C / 39°F
Dewpoint
C / 36°F
Humidity
87%
Altimeter
29.62" Hg
Pressure
1002.92 hPa